createdAt,value
2022-08-03T00:00:56.603Z,16.90
2022-08-03T00:01:56.547Z,16.93
2022-08-03T00:02:56.552Z,16.97
2022-08-03T00:03:56.514Z,16.97
2022-08-03T00:04:56.510Z,16.99
2022-08-03T00:06:04.808Z,16.97
2022-08-03T00:06:56.507Z,16.93
2022-08-03T00:07:56.498Z,16.90
2022-08-03T00:08:56.466Z,16.89
2022-08-03T00:09:56.471Z,16.86
2022-08-03T00:10:56.444Z,16.84
2022-08-03T00:11:56.438Z,16.79
2022-08-03T00:12:56.422Z,16.76
2022-08-03T00:13:56.427Z,16.72
2022-08-03T00:14:56.415Z,16.69
2022-08-03T00:15:56.413Z,16.66
2022-08-03T00:16:56.386Z,16.65
2022-08-03T00:17:56.387Z,16.64
2022-08-03T00:18:56.373Z,16.60
2022-08-03T00:19:56.354Z,16.57
2022-08-03T00:20:56.344Z,16.54
2022-08-03T00:21:56.352Z,16.53
2022-08-03T00:22:56.332Z,16.51
2022-08-03T00:23:56.319Z,16.51
2022-08-03T00:24:56.291Z,16.54
2022-08-03T00:25:56.304Z,16.58
2022-08-03T00:26:56.288Z,16.64
2022-08-03T00:27:56.296Z,16.66
2022-08-03T00:28:56.281Z,16.68
2022-08-03T00:29:59.365Z,16.72
2022-08-03T00:30:56.244Z,16.72
2022-08-03T00:31:59.507Z,16.72
2022-08-03T00:32:56.292Z,16.71
2022-08-03T00:33:57.898Z,16.66
2022-08-03T00:34:57.801Z,16.65
2022-08-03T00:35:56.197Z,16.61
2022-08-03T00:36:56.173Z,16.58
2022-08-03T00:37:56.188Z,16.57
2022-08-03T00:38:56.152Z,16.56
2022-08-03T00:39:56.169Z,16.54
2022-08-03T00:40:56.156Z,16.53
2022-08-03T00:41:56.131Z,16.54
2022-08-03T00:42:56.121Z,16.56
2022-08-03T00:43:56.129Z,16.54
2022-08-03T00:44:56.101Z,16.56
2022-08-03T00:45:56.092Z,16.56
2022-08-03T00:46:56.071Z,16.60
2022-08-03T00:47:56.091Z,16.64
2022-08-03T00:48:56.110Z,16.66
2022-08-03T00:49:56.085Z,16.69
2022-08-03T00:50:56.027Z,16.69
2022-08-03T00:51:56.050Z,16.69
2022-08-03T00:52:56.023Z,16.71
2022-08-03T00:53:56.035Z,16.68
2022-08-03T00:54:56.024Z,16.65
2022-08-03T00:55:56.034Z,16.60
2022-08-03T00:57:00.044Z,16.53
2022-08-03T00:57:55.976Z,16.50
2022-08-03T00:58:55.962Z,16.49
2022-08-03T00:59:55.966Z,16.47
2022-08-03T01:00:56.023Z,16.46
2022-08-03T01:01:55.956Z,16.46
2022-08-03T01:02:55.932Z,16.46
2022-08-03T01:03:55.934Z,16.49
2022-08-03T01:04:55.899Z,16.47
2022-08-03T01:05:55.904Z,16.47
2022-08-03T01:06:55.874Z,16.49
2022-08-03T01:07:55.930Z,16.47
2022-08-03T01:08:55.899Z,16.50
2022-08-03T01:09:55.873Z,16.50
2022-08-03T01:10:55.845Z,16.47
2022-08-03T01:12:01.003Z,16.47
2022-08-03T01:12:55.827Z,16.47
2022-08-03T01:14:03.691Z,16.42
2022-08-03T01:14:55.810Z,16.38
2022-08-03T01:15:55.831Z,16.38
2022-08-03T01:16:55.797Z,16.39
2022-08-03T01:17:55.767Z,16.39
2022-08-03T01:18:55.790Z,16.41
2022-08-03T01:19:55.769Z,16.42
2022-08-03T01:20:55.771Z,16.41
2022-08-03T01:21:55.741Z,16.42
2022-08-03T01:22:55.735Z,16.42
2022-08-03T01:23:55.747Z,16.46
2022-08-03T01:24:55.731Z,16.47
2022-08-03T01:25:55.701Z,16.43
2022-08-03T01:26:55.682Z,16.42
2022-08-03T01:27:55.688Z,16.39
2022-08-03T01:28:55.655Z,16.35
2022-08-03T01:29:55.663Z,16.31
2022-08-03T01:30:55.645Z,16.31
2022-08-03T01:32:59.813Z,16.31
2022-08-03T01:33:06.489Z,16.28
2022-08-03T01:33:55.617Z,16.23
2022-08-03T01:34:55.591Z,16.21
2022-08-03T01:35:55.630Z,16.20
2022-08-03T01:36:55.579Z,16.16
2022-08-03T01:37:55.595Z,16.15
2022-08-03T01:38:55.556Z,16.12
2022-08-03T01:39:55.551Z,16.12
2022-08-03T01:40:55.558Z,16.12
2022-08-03T01:41:55.564Z,16.10
2022-08-03T01:42:55.532Z,16.08
2022-08-03T01:44:27.760Z,16.05
2022-08-03T01:44:55.503Z,16.04
2022-08-03T01:45:55.492Z,16.01
2022-08-03T01:46:55.488Z,16.00
2022-08-03T01:47:55.489Z,15.98
2022-08-03T01:48:55.523Z,15.94
2022-08-03T01:49:55.448Z,15.94
2022-08-03T01:50:55.448Z,15.86
2022-08-03T01:52:03.583Z,15.82
2022-08-03T01:52:55.427Z,15.79
2022-08-03T01:53:55.400Z,15.75
2022-08-03T01:54:55.429Z,15.76
2022-08-03T01:55:55.379Z,15.75
2022-08-03T01:56:55.360Z,15.77
2022-08-03T01:58:05.490Z,15.80
2022-08-03T01:58:55.359Z,15.84
2022-08-03T01:59:55.368Z,15.88
2022-08-03T02:00:55.402Z,15.92
2022-08-03T02:02:27.740Z,15.95
2022-08-03T02:02:55.325Z,15.95
2022-08-03T02:03:59.790Z,15.97
2022-08-03T02:04:55.300Z,15.98
2022-08-03T02:06:17.885Z,15.98
2022-08-03T02:07:05.481Z,15.98
2022-08-03T02:07:55.269Z,15.95
2022-08-03T02:08:55.254Z,15.92
2022-08-03T02:09:55.251Z,15.90
2022-08-03T02:10:55.220Z,15.86
2022-08-03T02:11:55.251Z,15.83
2022-08-03T02:12:55.211Z,15.82
2022-08-03T02:13:55.195Z,15.79
2022-08-03T02:14:55.181Z,15.79
2022-08-03T02:15:55.177Z,15.77
2022-08-03T02:16:55.173Z,15.77
2022-08-03T02:17:55.177Z,15.76
2022-08-03T02:18:55.130Z,15.79
2022-08-03T02:19:55.142Z,15.79
2022-08-03T02:20:55.118Z,15.80
2022-08-03T02:21:56.802Z,15.79
2022-08-03T02:22:55.118Z,15.79
2022-08-03T02:23:55.108Z,15.76
2022-08-03T02:24:55.113Z,15.73
2022-08-03T02:25:55.087Z,15.73
2022-08-03T02:26:55.075Z,15.72
2022-08-03T02:27:55.081Z,15.72
2022-08-03T02:28:55.030Z,15.72
2022-08-03T02:29:55.034Z,15.73
2022-08-03T02:30:55.020Z,15.75
2022-08-03T02:31:55.013Z,15.79
2022-08-03T02:32:54.996Z,15.79
2022-08-03T02:33:54.990Z,15.77
2022-08-03T02:34:54.988Z,15.77
2022-08-03T02:35:54.969Z,15.76
2022-08-03T02:36:54.949Z,15.75
2022-08-03T02:37:54.954Z,15.73
2022-08-03T02:38:54.938Z,15.73
2022-08-03T02:39:54.944Z,15.70
2022-08-03T02:40:54.915Z,15.68
2022-08-03T02:41:54.905Z,15.67
2022-08-03T02:42:54.909Z,15.65
2022-08-03T02:44:05.627Z,15.64
2022-08-03T02:44:54.867Z,15.62
2022-08-03T02:45:54.863Z,15.61
2022-08-03T02:46:54.846Z,15.62
2022-08-03T02:47:55.029Z,15.59
2022-08-03T02:48:54.884Z,15.62
2022-08-03T02:49:54.864Z,15.61
2022-08-03T02:50:54.878Z,15.62
2022-08-03T02:51:54.823Z,15.62
2022-08-03T02:52:54.791Z,15.61
2022-08-03T02:53:54.794Z,15.64
2022-08-03T02:54:54.766Z,15.61
2022-08-03T02:55:54.760Z,15.61
2022-08-03T02:56:54.759Z,15.58
2022-08-03T02:57:54.758Z,15.57
2022-08-03T02:58:54.716Z,15.58
2022-08-03T02:59:54.744Z,15.59
2022-08-03T03:00:54.785Z,15.61
2022-08-03T03:01:54.695Z,15.59
2022-08-03T03:02:54.683Z,15.58
2022-08-03T03:03:54.686Z,15.55
2022-08-03T03:05:52.490Z,15.52
2022-08-03T03:06:00.149Z,15.51
2022-08-03T03:06:54.647Z,15.47
2022-08-03T03:07:54.640Z,15.44
2022-08-03T03:08:59.516Z,15.44
2022-08-03T03:09:54.618Z,15.43
2022-08-03T03:10:55.590Z,15.40
2022-08-03T03:11:54.588Z,15.39
2022-08-03T03:12:54.561Z,15.37
2022-08-03T03:13:54.539Z,15.37
2022-08-03T03:14:54.503Z,15.37
2022-08-03T03:15:54.489Z,15.35
2022-08-03T03:16:57.662Z,15.37
2022-08-03T03:17:54.477Z,15.39
2022-08-03T03:18:54.474Z,15.40
2022-08-03T03:19:54.464Z,15.42
2022-08-03T03:20:54.453Z,15.43
2022-08-03T03:21:54.419Z,15.47
2022-08-03T03:22:54.447Z,15.47
2022-08-03T03:23:54.412Z,15.51
2022-08-03T03:24:54.409Z,15.55
2022-08-03T03:25:54.431Z,15.54
2022-08-03T03:26:54.371Z,15.54
2022-08-03T03:27:54.364Z,15.49
2022-08-03T03:28:54.375Z,15.47
2022-08-03T03:29:54.335Z,15.46
2022-08-03T03:30:54.331Z,15.46
2022-08-03T03:31:54.342Z,15.44
2022-08-03T03:32:54.317Z,15.44
2022-08-03T03:33:54.309Z,15.44
2022-08-03T03:34:54.287Z,15.47
2022-08-03T03:35:54.301Z,15.47
2022-08-03T03:36:54.273Z,15.49
2022-08-03T03:37:54.264Z,15.52
2022-08-03T03:38:54.261Z,15.51
2022-08-03T03:39:54.269Z,15.49
2022-08-03T03:40:54.233Z,15.46
2022-08-03T03:41:54.232Z,15.43
2022-08-03T03:42:54.213Z,15.40
2022-08-03T03:43:54.196Z,15.36
2022-08-03T03:44:54.185Z,15.37
2022-08-03T03:45:54.165Z,15.35
2022-08-03T03:46:54.199Z,15.33
2022-08-03T03:47:54.152Z,15.36
2022-08-03T03:48:54.226Z,15.37
2022-08-03T03:49:54.147Z,15.40
2022-08-03T03:50:54.122Z,15.44
2022-08-03T03:51:54.105Z,15.44
2022-08-03T03:52:54.104Z,15.46
2022-08-03T03:53:54.110Z,15.44
2022-08-03T03:54:58.915Z,15.43
2022-08-03T03:55:57.883Z,15.43
2022-08-03T03:56:54.094Z,15.43
2022-08-03T03:57:54.046Z,15.42
2022-08-03T03:58:54.043Z,15.42
2022-08-03T03:59:54.041Z,15.42
2022-08-03T04:00:54.269Z,15.42
2022-08-03T04:01:58.529Z,15.42
2022-08-03T04:02:54.031Z,15.39
2022-08-03T04:03:53.987Z,15.40
2022-08-03T04:04:53.989Z,15.39
2022-08-03T04:05:53.966Z,15.36
2022-08-03T04:06:53.962Z,15.33
2022-08-03T04:07:53.965Z,15.35
2022-08-03T04:08:53.944Z,15.35
2022-08-03T04:09:53.935Z,15.29
2022-08-03T04:10:53.943Z,15.31
2022-08-03T04:11:53.899Z,15.29
2022-08-03T04:12:53.921Z,15.31
2022-08-03T04:13:53.881Z,15.31
2022-08-03T04:14:53.881Z,15.31
2022-08-03T04:15:53.876Z,15.29
2022-08-03T04:16:53.860Z,15.28
2022-08-03T04:17:53.838Z,15.29
2022-08-03T04:18:53.849Z,15.31
2022-08-03T04:19:53.819Z,15.31
2022-08-03T04:20:53.824Z,15.31
2022-08-03T04:21:53.786Z,15.33
2022-08-03T04:22:53.782Z,15.31
2022-08-03T04:23:53.775Z,15.33
2022-08-03T04:24:53.787Z,15.36
2022-08-03T04:25:53.758Z,15.37
2022-08-03T04:26:53.758Z,15.39
2022-08-03T04:28:29.231Z,15.39
2022-08-03T04:28:53.751Z,15.39
2022-08-03T04:29:53.700Z,15.37
2022-08-03T04:30:53.724Z,15.37
2022-08-03T04:31:53.704Z,15.36
2022-08-03T04:32:53.689Z,15.36
2022-08-03T04:33:53.668Z,15.35
2022-08-03T04:34:53.694Z,15.37
2022-08-03T04:36:02.342Z,15.35
2022-08-03T04:36:53.661Z,15.39
2022-08-03T04:37:53.623Z,15.40
2022-08-03T04:38:53.629Z,15.42
2022-08-03T04:39:53.610Z,15.46
2022-08-03T04:40:53.614Z,15.49
2022-08-03T04:42:08.199Z,15.52
2022-08-03T04:42:53.591Z,15.55
2022-08-03T04:43:53.564Z,15.59
2022-08-03T04:44:56.561Z,15.62
2022-08-03T04:45:53.553Z,15.65
2022-08-03T04:46:53.558Z,15.68
2022-08-03T04:47:53.548Z,15.70
2022-08-03T04:48:53.573Z,15.73
2022-08-03T04:49:53.497Z,15.75
2022-08-03T04:50:53.501Z,15.77
2022-08-03T04:51:53.483Z,15.80
2022-08-03T04:52:53.488Z,15.84
2022-08-03T04:53:53.457Z,15.86
2022-08-03T04:54:53.458Z,15.91
2022-08-03T04:55:53.437Z,15.91
2022-08-03T04:56:53.432Z,15.92
2022-08-03T04:57:53.422Z,15.94
2022-08-03T04:58:53.426Z,15.98
2022-08-03T04:59:56.852Z,16.01
2022-08-03T05:00:53.412Z,16.04
2022-08-03T05:01:53.441Z,16.05
2022-08-03T05:02:53.398Z,16.09
2022-08-03T05:03:53.345Z,16.10
2022-08-03T05:04:53.351Z,16.15
2022-08-03T05:05:53.345Z,16.15
2022-08-03T05:06:55.179Z,16.21
2022-08-03T05:07:53.332Z,16.24
2022-08-03T05:08:53.309Z,16.26
2022-08-03T05:10:01.853Z,16.29
2022-08-03T05:10:53.315Z,16.33
2022-08-03T05:11:53.293Z,16.36
2022-08-03T05:12:53.280Z,16.41
2022-08-03T05:13:53.263Z,16.46
2022-08-03T05:14:53.251Z,16.49
2022-08-03T05:15:53.226Z,16.51
2022-08-03T05:16:53.245Z,16.56
2022-08-03T05:17:53.237Z,16.60
2022-08-03T05:18:53.218Z,16.64
2022-08-03T05:19:53.203Z,16.65
2022-08-03T05:20:53.192Z,16.71
2022-08-03T05:21:53.178Z,16.75
2022-08-03T05:22:53.167Z,16.79
2022-08-03T05:23:53.167Z,16.87
2022-08-03T05:24:53.138Z,16.91
2022-08-03T05:25:53.130Z,16.94
2022-08-03T05:26:53.128Z,17.02
2022-08-03T05:27:53.110Z,17.09
2022-08-03T05:28:53.109Z,17.15
2022-08-03T05:29:53.081Z,17.20
2022-08-03T05:30:53.126Z,17.24
2022-08-03T05:31:53.062Z,17.31
2022-08-03T05:32:53.053Z,17.36
2022-08-03T05:33:53.088Z,17.44
2022-08-03T05:34:53.077Z,17.48
2022-08-03T05:35:56.235Z,17.51
2022-08-03T05:36:53.028Z,17.59
2022-08-03T05:37:54.968Z,17.64
2022-08-03T05:38:53.032Z,17.72
2022-08-03T05:39:52.975Z,17.80
2022-08-03T05:40:56.959Z,17.87
2022-08-03T05:41:52.961Z,17.95
2022-08-03T05:42:52.982Z,18.00
2022-08-03T05:43:52.957Z,18.07
2022-08-03T05:44:52.952Z,18.13
2022-08-03T05:46:11.596Z,18.18
2022-08-03T05:46:52.933Z,18.25
2022-08-03T05:47:52.936Z,18.31
2022-08-03T05:48:52.961Z,18.38
2022-08-03T05:49:52.892Z,18.41
2022-08-03T05:50:52.872Z,18.47
2022-08-03T05:52:00.286Z,18.50
2022-08-03T05:52:52.894Z,18.58
2022-08-03T05:53:52.861Z,18.62
2022-08-03T05:54:56.042Z,18.68
2022-08-03T05:55:56.959Z,18.73
2022-08-03T05:56:52.859Z,18.78
2022-08-03T05:57:52.798Z,18.84
2022-08-03T05:58:52.821Z,18.88
2022-08-03T05:59:55.584Z,18.92
2022-08-03T06:00:52.794Z,18.95
2022-08-03T06:01:52.889Z,19.00
2022-08-03T06:02:52.762Z,19.09
2022-08-03T06:03:52.770Z,19.15
2022-08-03T06:04:52.745Z,19.22
2022-08-03T06:05:54.947Z,19.27
2022-08-03T06:06:52.725Z,19.34
2022-08-03T06:07:52.699Z,19.40
2022-08-03T06:08:52.697Z,19.48
2022-08-03T06:10:33.821Z,19.54
2022-08-03T06:10:52.699Z,19.59
2022-08-03T06:11:52.671Z,19.63
2022-08-03T06:12:52.685Z,19.67
2022-08-03T06:13:52.637Z,19.73
2022-08-03T06:14:52.654Z,19.82
2022-08-03T06:15:52.631Z,19.86
2022-08-03T06:16:52.627Z,19.92
2022-08-03T06:17:52.606Z,19.96
2022-08-03T06:18:52.595Z,20.04
2022-08-03T06:19:52.595Z,20.09
2022-08-03T06:20:52.615Z,20.14
2022-08-03T06:21:52.570Z,20.22
2022-08-03T06:23:00.308Z,20.31
2022-08-03T06:23:55.368Z,20.43
2022-08-03T06:24:53.272Z,20.52
2022-08-03T06:25:52.523Z,20.65
2022-08-03T06:26:52.538Z,20.74
2022-08-03T06:27:52.503Z,20.81
2022-08-03T06:28:54.194Z,20.90
2022-08-03T06:29:52.483Z,20.99
2022-08-03T06:30:52.512Z,21.09
2022-08-03T06:31:52.464Z,21.22
2022-08-03T06:32:52.689Z,21.33
2022-08-03T06:34:34.055Z,21.43
2022-08-03T06:34:52.463Z,21.52
2022-08-03T06:35:52.433Z,21.64
2022-08-03T06:36:52.949Z,21.75
2022-08-03T06:37:52.400Z,21.82
2022-08-03T06:38:52.397Z,21.92
2022-08-03T06:39:52.389Z,22.06
2022-08-03T06:40:52.403Z,22.11
2022-08-03T06:41:52.370Z,22.20
2022-08-03T06:42:52.402Z,22.29
2022-08-03T06:44:02.946Z,22.35
2022-08-03T06:44:52.359Z,22.44
2022-08-03T06:45:52.321Z,22.51
2022-08-03T06:46:52.332Z,22.60
2022-08-03T06:47:52.309Z,22.70
2022-08-03T06:48:52.344Z,22.78
2022-08-03T06:50:16.334Z,22.84
2022-08-03T06:50:52.297Z,22.90
2022-08-03T06:52:04.907Z,23.02
2022-08-03T06:52:52.264Z,23.05
2022-08-03T06:53:52.254Z,23.09
2022-08-03T06:54:52.230Z,23.17
2022-08-03T06:55:54.731Z,23.23
2022-08-03T06:56:52.228Z,23.34
2022-08-03T06:57:52.211Z,23.44
2022-08-03T06:58:52.230Z,23.54
2022-08-03T07:00:10.364Z,23.65
2022-08-03T07:00:52.198Z,23.73
2022-08-03T07:01:52.189Z,23.86
2022-08-03T07:02:57.690Z,24.01
2022-08-03T07:03:52.690Z,24.18
2022-08-03T07:04:52.193Z,24.39
2022-08-03T07:05:52.141Z,24.57
2022-08-03T07:06:52.123Z,24.77
2022-08-03T07:07:52.098Z,24.93
2022-08-03T07:08:55.450Z,25.08
2022-08-03T07:09:56.720Z,25.32
2022-08-03T07:10:52.083Z,25.47
2022-08-03T07:11:52.054Z,25.68
2022-08-03T07:12:55.642Z,25.84
2022-08-03T07:13:52.052Z,26.05
2022-08-03T07:14:54.572Z,26.34
2022-08-03T07:15:55.212Z,26.59
2022-08-03T07:16:52.014Z,26.88
2022-08-03T07:17:52.009Z,27.03
2022-08-03T07:18:52.012Z,27.11
2022-08-03T07:19:51.982Z,27.05
2022-08-03T07:20:51.987Z,27.10
2022-08-03T07:21:51.963Z,27.11
2022-08-03T07:22:51.988Z,27.27
2022-08-03T07:23:51.945Z,27.36
2022-08-03T07:24:51.923Z,27.44
2022-08-03T07:25:51.923Z,27.25
2022-08-03T07:26:51.900Z,27.14
2022-08-03T07:27:51.941Z,27.02
2022-08-03T07:28:51.897Z,27.11
2022-08-03T07:29:51.903Z,27.18
2022-08-03T07:30:51.863Z,27.27
2022-08-03T07:31:51.892Z,27.35
2022-08-03T07:32:51.861Z,27.39
2022-08-03T07:33:51.856Z,27.39
2022-08-03T07:34:53.785Z,27.45
2022-08-03T07:35:51.826Z,27.44
2022-08-03T07:36:51.811Z,27.44
2022-08-03T07:37:54.190Z,27.45
2022-08-03T07:38:51.799Z,27.51
2022-08-03T07:39:51.801Z,27.55
2022-08-03T07:40:51.765Z,27.60
2022-08-03T07:41:51.789Z,27.71
2022-08-03T07:42:53.218Z,27.80
2022-08-03T07:43:51.749Z,27.82
2022-08-03T07:44:51.729Z,27.87
2022-08-03T07:45:51.733Z,27.95
2022-08-03T07:46:51.700Z,28.02
2022-08-03T07:47:53.707Z,28.07
2022-08-03T07:48:51.718Z,28.20
2022-08-03T07:49:51.672Z,28.14
2022-08-03T07:50:51.684Z,28.12
2022-08-03T07:51:51.661Z,27.86
2022-08-03T07:52:51.662Z,27.70
2022-08-03T07:53:51.644Z,27.51
2022-08-03T07:54:51.636Z,27.36
2022-08-03T07:55:51.624Z,27.20
2022-08-03T07:56:51.702Z,26.99
2022-08-03T07:57:51.617Z,26.90
2022-08-03T07:58:51.582Z,26.88
2022-08-03T08:00:01.938Z,26.89
2022-08-03T08:00:51.609Z,26.77
2022-08-03T08:01:51.641Z,26.78
2022-08-03T08:02:51.554Z,27.03
2022-08-03T08:03:53.244Z,27.29
2022-08-03T08:04:51.553Z,27.63
2022-08-03T08:05:51.535Z,27.73
2022-08-03T08:06:51.507Z,27.64
2022-08-03T08:07:51.893Z,27.83
2022-08-03T08:08:51.481Z,27.92
2022-08-03T08:09:51.551Z,27.85
2022-08-03T08:10:57.843Z,27.85
2022-08-03T08:11:51.468Z,27.83
2022-08-03T08:12:51.437Z,27.95
2022-08-03T08:13:51.454Z,27.96
2022-08-03T08:14:51.434Z,28.10
2022-08-03T08:15:51.465Z,28.22
2022-08-03T08:16:51.426Z,28.38
2022-08-03T08:17:51.410Z,28.37
2022-08-03T08:18:51.401Z,28.25
2022-08-03T08:19:53.300Z,28.12
2022-08-03T08:20:51.366Z,28.17
2022-08-03T08:21:53.982Z,28.12
2022-08-03T08:22:51.355Z,28.15
2022-08-03T08:23:57.094Z,27.92
2022-08-03T08:24:51.338Z,28.00
2022-08-03T08:25:51.341Z,28.01
2022-08-03T08:26:51.315Z,28.12
2022-08-03T08:28:29.417Z,28.45
2022-08-03T08:28:51.304Z,28.78
2022-08-03T08:29:55.147Z,28.91
2022-08-03T08:30:51.282Z,29.08
2022-08-03T08:31:51.276Z,29.01
2022-08-03T08:32:51.255Z,28.94
2022-08-03T08:34:06.928Z,28.93
2022-08-03T08:34:51.235Z,29.04
2022-08-03T08:35:51.248Z,29.07
2022-08-03T08:36:51.203Z,29.05
2022-08-03T08:37:51.489Z,29.20
2022-08-03T08:38:51.188Z,29.38
2022-08-03T08:39:51.191Z,29.51
2022-08-03T08:40:51.189Z,29.81
2022-08-03T08:41:53.274Z,29.93
2022-08-03T08:42:58.433Z,29.88
2022-08-03T08:43:51.152Z,29.76
2022-08-03T08:44:51.157Z,29.63
2022-08-03T08:45:51.169Z,29.71
2022-08-03T08:46:51.110Z,29.81
2022-08-03T08:47:53.214Z,29.94
2022-08-03T08:48:51.092Z,30.03
2022-08-03T08:50:08.889Z,30.18
2022-08-03T08:50:51.099Z,30.24
2022-08-03T08:52:00.630Z,30.13
2022-08-03T08:52:51.059Z,30.13
2022-08-03T08:53:51.076Z,30.09
2022-08-03T08:54:51.035Z,30.05
2022-08-03T08:55:59.548Z,29.97
2022-08-03T08:56:51.017Z,29.81
2022-08-03T08:57:50.999Z,29.71
2022-08-03T08:58:50.999Z,29.71
2022-08-03T08:59:53.464Z,29.78
2022-08-03T09:00:51.035Z,29.82
2022-08-03T09:01:51.005Z,29.82
2022-08-03T09:02:50.992Z,29.91
2022-08-03T09:03:50.951Z,29.95
2022-08-03T09:04:50.935Z,29.98
2022-08-03T09:05:56.103Z,30.00
2022-08-03T09:07:17.696Z,30.08
2022-08-03T09:07:50.936Z,30.00
2022-08-03T09:08:50.891Z,29.94
2022-08-03T09:10:10.407Z,29.82
2022-08-03T09:10:50.881Z,29.66
2022-08-03T09:11:52.543Z,29.44
2022-08-03T09:12:50.897Z,29.35
2022-08-03T09:13:50.865Z,29.32
2022-08-03T09:15:14.706Z,29.36
2022-08-03T09:15:52.733Z,29.39
2022-08-03T09:16:50.837Z,29.39
2022-08-03T09:17:51.470Z,29.47
2022-08-03T09:18:50.801Z,29.59
2022-08-03T09:20:03.609Z,29.72
2022-08-03T09:20:50.776Z,29.75
2022-08-03T09:21:50.793Z,29.86
2022-08-03T09:22:50.778Z,29.93
2022-08-03T09:24:02.349Z,29.98
2022-08-03T09:25:08.732Z,30.02
2022-08-03T09:25:50.742Z,30.09
2022-08-03T09:26:51.935Z,30.13
2022-08-03T09:27:50.724Z,30.12
2022-08-03T09:28:59.411Z,30.12
2022-08-03T09:29:50.698Z,30.08
2022-08-03T09:30:50.717Z,30.05
2022-08-03T09:31:50.701Z,30.10
2022-08-03T09:32:50.679Z,30.10
2022-08-03T09:33:50.653Z,30.09
2022-08-03T09:34:52.493Z,30.10
2022-08-03T09:35:54.788Z,30.19
2022-08-03T09:36:50.710Z,30.30
2022-08-03T09:38:11.868Z,30.46
2022-08-03T09:38:50.603Z,30.54
2022-08-03T09:39:50.605Z,30.51
2022-08-03T09:40:50.574Z,30.50
2022-08-03T09:41:50.606Z,30.53
2022-08-03T09:42:50.554Z,30.55
2022-08-03T09:43:50.557Z,30.54
2022-08-03T09:44:50.550Z,30.61
2022-08-03T09:45:50.559Z,30.62
2022-08-03T09:46:50.551Z,30.62
2022-08-03T09:47:50.574Z,30.70
2022-08-03T09:48:50.508Z,30.70
2022-08-03T09:49:50.498Z,30.69
2022-08-03T09:50:56.815Z,30.69
2022-08-03T09:52:32.153Z,30.77
2022-08-03T09:52:52.575Z,30.83
2022-08-03T09:53:57.195Z,30.80
2022-08-03T09:54:50.447Z,30.84
2022-08-03T09:56:35.001Z,30.94
2022-08-03T09:56:50.421Z,30.92
2022-08-03T09:57:50.440Z,30.90
2022-08-03T09:58:50.395Z,30.87
2022-08-03T09:59:50.402Z,30.80
2022-08-03T10:00:50.392Z,30.66
2022-08-03T10:01:50.383Z,30.72
2022-08-03T10:02:50.356Z,30.83
2022-08-03T10:04:04.431Z,30.85
2022-08-03T10:04:50.348Z,30.90
2022-08-03T10:05:50.332Z,30.88
2022-08-03T10:06:50.330Z,30.88
2022-08-03T10:07:50.388Z,30.85
2022-08-03T10:08:50.306Z,30.78
2022-08-03T10:09:50.302Z,30.70
2022-08-03T10:10:50.271Z,30.55
2022-08-03T10:11:50.280Z,30.53
2022-08-03T10:12:50.272Z,30.46
2022-08-03T10:13:50.266Z,30.39
2022-08-03T10:14:50.243Z,30.30
2022-08-03T10:16:22.824Z,30.24
2022-08-03T10:16:50.241Z,30.24
2022-08-03T10:17:50.221Z,30.27
2022-08-03T10:18:50.189Z,30.23
2022-08-03T10:19:50.198Z,30.24
2022-08-03T10:20:50.233Z,30.18
2022-08-03T10:21:50.211Z,30.09
2022-08-03T10:22:50.162Z,30.00
2022-08-03T10:23:50.155Z,29.88
2022-08-03T10:24:50.136Z,29.81
2022-08-03T10:25:50.139Z,29.73
2022-08-03T10:26:50.390Z,29.78
2022-08-03T10:27:50.116Z,29.86
2022-08-03T10:28:50.096Z,29.97
2022-08-03T10:29:50.106Z,30.15
2022-08-03T10:30:50.079Z,30.31
2022-08-03T10:31:54.542Z,30.46
2022-08-03T10:32:50.077Z,30.62
2022-08-03T10:33:52.862Z,30.61
2022-08-03T10:34:50.031Z,30.62
2022-08-03T10:35:50.038Z,30.66
2022-08-03T10:36:50.021Z,30.70
2022-08-03T10:37:57.057Z,30.73
2022-08-03T10:38:50.001Z,30.85
2022-08-03T10:39:50.019Z,30.91
2022-08-03T10:40:53.486Z,31.06
2022-08-03T10:41:49.984Z,31.18
2022-08-03T10:42:50.206Z,31.22
2022-08-03T10:43:49.962Z,31.25
2022-08-03T10:44:49.951Z,31.33
2022-08-03T10:45:49.954Z,31.37
2022-08-03T10:46:49.926Z,31.47
2022-08-03T10:47:49.918Z,31.54
2022-08-03T10:48:49.938Z,31.58
2022-08-03T10:49:49.973Z,31.56
2022-08-03T10:50:49.874Z,31.66
2022-08-03T10:51:53.418Z,31.71
2022-08-03T10:52:49.875Z,31.78
2022-08-03T10:53:54.202Z,31.89
2022-08-03T10:54:49.846Z,31.96
2022-08-03T10:55:49.838Z,32.00
2022-08-03T10:56:50.520Z,32.01
2022-08-03T10:57:50.087Z,32.03
2022-08-03T10:58:53.223Z,32.00
2022-08-03T10:59:49.815Z,31.96
2022-08-03T11:00:49.870Z,31.93
2022-08-03T11:01:55.057Z,31.92
2022-08-03T11:02:49.786Z,31.87
2022-08-03T11:03:49.764Z,31.80
2022-08-03T11:04:49.747Z,31.84
2022-08-03T11:05:49.745Z,31.84
2022-08-03T11:06:49.727Z,31.80
2022-08-03T11:07:54.479Z,31.85
2022-08-03T11:08:49.723Z,31.94
2022-08-03T11:09:49.709Z,31.93
2022-08-03T11:10:49.693Z,31.85
2022-08-03T11:11:49.690Z,31.70
2022-08-03T11:12:49.660Z,31.58
2022-08-03T11:13:49.660Z,31.51
2022-08-03T11:14:49.656Z,31.59
2022-08-03T11:15:49.647Z,31.69
2022-08-03T11:16:49.612Z,31.76
2022-08-03T11:17:55.919Z,31.90
2022-08-03T11:18:49.609Z,31.92
2022-08-03T11:19:57.831Z,31.96
2022-08-03T11:20:49.587Z,32.00
2022-08-03T11:21:49.575Z,32.08
2022-08-03T11:22:49.557Z,32.18
2022-08-03T11:24:02.835Z,32.26
2022-08-03T11:24:49.548Z,32.31
2022-08-03T11:25:55.013Z,32.38
2022-08-03T11:26:49.529Z,32.41
2022-08-03T11:27:49.515Z,32.46
2022-08-03T11:28:49.498Z,32.43
2022-08-03T11:29:49.558Z,32.48
2022-08-03T11:30:49.489Z,32.55
2022-08-03T11:31:50.947Z,32.63
2022-08-03T11:32:49.472Z,32.73
2022-08-03T11:33:49.464Z,32.80
2022-08-03T11:34:49.492Z,32.80
2022-08-03T11:35:49.444Z,32.86
2022-08-03T11:36:49.424Z,32.87
2022-08-03T11:38:04.330Z,32.93
2022-08-03T11:38:49.430Z,33.04
2022-08-03T11:39:49.395Z,33.12
2022-08-03T11:40:49.393Z,33.23
2022-08-03T11:41:49.401Z,33.30
2022-08-03T11:42:49.400Z,33.27
2022-08-03T11:43:49.365Z,33.23
2022-08-03T11:44:49.360Z,33.27
2022-08-03T11:45:49.339Z,33.39
2022-08-03T11:46:49.332Z,33.42
2022-08-03T11:47:50.192Z,33.40
2022-08-03T11:48:49.332Z,33.39
2022-08-03T11:49:49.318Z,33.31
2022-08-03T11:50:49.302Z,33.24
2022-08-03T11:51:49.274Z,33.24
2022-08-03T11:52:49.272Z,33.30
2022-08-03T11:53:49.263Z,33.28
2022-08-03T11:54:49.266Z,33.27
2022-08-03T11:55:49.237Z,33.20
2022-08-03T11:56:49.228Z,33.02
2022-08-03T11:59:16.588Z,32.95
2022-08-03T11:59:24.259Z,32.97
2022-08-03T11:59:49.199Z,33.00
2022-08-03T12:00:49.218Z,33.05
2022-08-03T12:01:49.236Z,33.08
2022-08-03T12:02:49.220Z,33.09
2022-08-03T12:03:49.158Z,33.09
2022-08-03T12:04:49.154Z,33.04
2022-08-03T12:05:51.646Z,33.08
2022-08-03T12:06:49.164Z,33.14
2022-08-03T12:08:03.535Z,33.22
2022-08-03T12:08:49.124Z,33.30
2022-08-03T12:09:49.115Z,33.40
2022-08-03T12:10:49.102Z,33.45
2022-08-03T12:11:59.762Z,33.47
2022-08-03T12:12:49.093Z,33.47
2022-08-03T12:14:37.373Z,33.45
2022-08-03T12:14:55.978Z,33.46
2022-08-03T12:15:49.056Z,33.45
2022-08-03T12:16:49.048Z,33.47
2022-08-03T12:17:49.051Z,33.53
2022-08-03T12:18:49.030Z,33.59
2022-08-03T12:19:49.003Z,33.61
2022-08-03T12:20:49.021Z,33.45
2022-08-03T12:21:56.623Z,33.50
2022-08-03T12:22:49.039Z,33.57
2022-08-03T12:23:48.961Z,33.55
2022-08-03T12:24:48.969Z,33.61
2022-08-03T12:25:49.554Z,33.68
2022-08-03T12:26:57.196Z,33.68
2022-08-03T12:27:48.945Z,33.69
2022-08-03T12:28:49.939Z,33.68
2022-08-03T12:29:58.626Z,33.76
2022-08-03T12:30:48.913Z,33.79
2022-08-03T12:31:48.898Z,33.76
2022-08-03T12:32:48.892Z,33.68
2022-08-03T12:33:48.863Z,33.64
2022-08-03T12:34:49.046Z,33.32
2022-08-03T12:35:52.266Z,33.27
2022-08-03T12:36:48.858Z,33.30
2022-08-03T12:37:48.825Z,33.37
2022-08-03T12:38:48.856Z,33.49
2022-08-03T12:40:02.962Z,33.58
2022-08-03T12:40:48.814Z,33.53
2022-08-03T12:41:48.816Z,33.53
2022-08-03T12:42:48.790Z,33.53
2022-08-03T12:43:48.772Z,33.53
2022-08-03T12:44:48.772Z,33.62
2022-08-03T12:45:48.770Z,33.47
2022-08-03T12:46:48.762Z,33.43
2022-08-03T12:47:48.728Z,33.49
2022-08-03T12:48:48.736Z,33.53
2022-08-03T12:49:48.726Z,33.58
2022-08-03T12:50:51.882Z,33.59
2022-08-03T12:51:48.713Z,33.67
2022-08-03T12:52:48.695Z,33.73